sensor_id;sensor_type;location;lat;lon;timestamp;pressure;altitude;pressure_sealevel;temperature;humidity
10700;BME280;5401;41.986;21.452;2023-02-28T00:01:21;98950.56;;;7.65;68.52
10700;BME280;5401;41.986;21.452;2023-02-28T00:03:50;98931.88;;;7.51;69.24
10700;BME280;5401;41.986;21.452;2023-02-28T00:06:18;98935.38;;;7.51;68.40
10700;BME280;5401;41.986;21.452;2023-02-28T00:08:46;98952.41;;;7.65;69.45
10700;BME280;5401;41.986;21.452;2023-02-28T00:11:15;98939.88;;;7.51;68.70
10700;BME280;5401;41.986;21.452;2023-02-28T00:13:44;98949.88;;;7.49;68.77
10700;BME280;5401;41.986;21.452;2023-02-28T00:16:15;98951.59;;;7.42;69.22
10700;BME280;5401;41.986;21.452;2023-02-28T00:18:43;98957.59;;;7.44;69.75
10700;BME280;5401;41.986;21.452;2023-02-28T00:21:13;98951.72;;;7.48;69.87
10700;BME280;5401;41.986;21.452;2023-02-28T00:23:41;98920.19;;;7.38;69.75
10700;BME280;5401;41.986;21.452;2023-02-28T00:26:08;98943.59;;;7.64;69.79
10700;BME280;5401;41.986;21.452;2023-02-28T00:28:36;98948.19;;;7.70;69.77
10700;BME280;5401;41.986;21.452;2023-02-28T00:31:04;98937.53;;;7.70;69.44
10700;BME280;5401;41.986;21.452;2023-02-28T00:33:31;98940.03;;;7.72;69.36
10700;BME280;5401;41.986;21.452;2023-02-28T00:36:04;98941.13;;;7.77;69.48
10700;BME280;5401;41.986;21.452;2023-02-28T00:38:33;98890.81;;;7.46;69.44
10700;BME280;5401;41.986;21.452;2023-02-28T00:41:01;98944.53;;;7.85;69.04
10700;BME280;5401;41.986;21.452;2023-02-28T00:43:32;98942.72;;;7.86;69.62
10700;BME280;5401;41.986;21.452;2023-02-28T00:46:00;98937.75;;;7.83;69.56
10700;BME280;5401;41.986;21.452;2023-02-28T00:48:28;98940.88;;;7.86;69.70
10700;BME280;5401;41.986;21.452;2023-02-28T00:50:55;98943.63;;;7.79;69.67
10700;BME280;5401;41.986;21.452;2023-02-28T00:53:23;98927.03;;;7.54;69.12
10700;BME280;5401;41.986;21.452;2023-02-28T00:55:52;98944.31;;;7.58;69.14
10700;BME280;5401;41.986;21.452;2023-02-28T00:58:20;98955.16;;;7.71;69.37
10700;BME280;5401;41.986;21.452;2023-02-28T01:00:48;98951.03;;;7.69;69.99
10700;BME280;5401;41.986;21.452;2023-02-28T01:03:17;98950.88;;;7.70;69.45
10700;BME280;5401;41.986;21.452;2023-02-28T01:05:46;98918.94;;;7.48;69.37
10700;BME280;5401;41.986;21.452;2023-02-28T01:08:14;98939.34;;;7.55;70.01
10700;BME280;5401;41.986;21.452;2023-02-28T01:10:42;98937.50;;;7.56;69.53
10700;BME280;5401;41.986;21.452;2023-02-28T01:13:12;98936.97;;;7.60;69.76
10700;BME280;5401;41.986;21.452;2023-02-28T01:15:43;98925.00;;;7.56;70.38
10700;BME280;5401;41.986;21.452;2023-02-28T01:18:12;98932.53;;;7.53;69.93
10700;BME280;5401;41.986;21.452;2023-02-28T01:20:40;98941.16;;;7.55;69.97
10700;BME280;5401;41.986;21.452;2023-02-28T01:23:07;98930.16;;;7.58;69.86
10700;BME280;5401;41.986;21.452;2023-02-28T01:25:35;98941.56;;;7.66;69.84
10700;BME280;5401;41.986;21.452;2023-02-28T01:28:03;98941.56;;;7.66;69.70
10700;BME280;5401;41.986;21.452;2023-02-28T01:30:33;98930.25;;;7.64;69.50
10700;BME280;5401;41.986;21.452;2023-02-28T01:33:01;98946.19;;;7.72;70.08
10700;BME280;5401;41.986;21.452;2023-02-28T01:35:31;98910.88;;;7.56;69.25
10700;BME280;5401;41.986;21.452;2023-02-28T01:37:59;98915.31;;;7.41;69.18
10700;BME280;5401;41.986;21.452;2023-02-28T01:40:27;98946.09;;;7.44;70.42
10700;BME280;5401;41.986;21.452;2023-02-28T01:42:54;98921.94;;;7.23;70.50
10700;BME280;5401;41.986;21.452;2023-02-28T01:45:26;98947.88;;;7.29;70.56
10700;BME280;5401;41.986;21.452;2023-02-28T01:47:57;98947.25;;;7.19;70.68
10700;BME280;5401;41.986;21.452;2023-02-28T01:50:30;98953.19;;;7.29;70.68
10700;BME280;5401;41.986;21.452;2023-02-28T01:53:02;98949.81;;;7.35;70.25
10700;BME280;5401;41.986;21.452;2023-02-28T01:55:32;98940.19;;;7.34;70.21
10700;BME280;5401;41.986;21.452;2023-02-28T01:58:02;98949.47;;;7.38;69.94
10700;BME280;5401;41.986;21.452;2023-02-28T02:00:32;98953.13;;;7.37;70.72
10700;BME280;5401;41.986;21.452;2023-02-28T02:03:06;98952.16;;;7.38;70.29
10700;BME280;5401;41.986;21.452;2023-02-28T02:05:37;98905.91;;;7.09;70.89
10700;BME280;5401;41.986;21.452;2023-02-28T02:08:06;98934.56;;;7.29;70.26
10700;BME280;5401;41.986;21.452;2023-02-28T02:10:38;98960.53;;;7.49;70.58
10700;BME280;5401;41.986;21.452;2023-02-28T02:13:39;98973.97;;;7.55;70.14
10700;BME280;5401;41.986;21.452;2023-02-28T02:16:23;98949.00;;;7.34;70.23
10700;BME280;5401;41.986;21.452;2023-02-28T02:18:59;98968.06;;;7.46;70.55
10700;BME280;5401;41.986;21.452;2023-02-28T02:27:59;98981.63;;;7.36;69.87
10700;BME280;5401;41.986;21.452;2023-02-28T02:30:51;98973.06;;;7.18;70.12
10700;BME280;5401;41.986;21.452;2023-02-28T02:33:45;98988.22;;;7.18;70.55
10700;BME280;5401;41.986;21.452;2023-02-28T02:36:23;98965.84;;;7.05;70.46
10700;BME280;5401;41.986;21.452;2023-02-28T02:38:55;98984.44;;;7.12;70.77
10700;BME280;5401;41.986;21.452;2023-02-28T02:41:36;98964.19;;;7.04;70.33
10700;BME280;5401;41.986;21.452;2023-02-28T02:44:12;98985.56;;;7.18;70.94
10700;BME280;5401;41.986;21.452;2023-02-28T02:46:42;98966.31;;;7.08;70.65
10700;BME280;5401;41.986;21.452;2023-02-28T02:49:15;98984.53;;;7.19;70.90
10700;BME280;5401;41.986;21.452;2023-02-28T02:51:46;98978.13;;;7.13;71.25
10700;BME280;5401;41.986;21.452;2023-02-28T02:54:17;98982.91;;;7.18;71.25
10700;BME280;5401;41.986;21.452;2023-02-28T02:56:48;98997.00;;;7.26;71.33
10700;BME280;5401;41.986;21.452;2023-02-28T02:59:20;99001.50;;;7.26;71.43
10700;BME280;5401;41.986;21.452;2023-02-28T03:01:52;98988.00;;;7.27;71.03
10700;BME280;5401;41.986;21.452;2023-02-28T03:04:23;98984.81;;;7.32;71.28
10700;BME280;5401;41.986;21.452;2023-02-28T03:06:54;98992.75;;;7.40;70.83
10700;BME280;5401;41.986;21.452;2023-02-28T03:09:21;98982.63;;;7.35;71.18
10700;BME280;5401;41.986;21.452;2023-02-28T03:11:51;98978.84;;;7.30;71.29
10700;BME280;5401;41.986;21.452;2023-02-28T03:14:28;98986.28;;;7.34;71.16
10700;BME280;5401;41.986;21.452;2023-02-28T03:17:13;98994.16;;;7.28;71.70
10700;BME280;5401;41.986;21.452;2023-02-28T03:19:52;98964.63;;;7.15;71.29
10700;BME280;5401;41.986;21.452;2023-02-28T03:22:43;99004.72;;;7.44;71.17
10700;BME280;5401;41.986;21.452;2023-02-28T03:25:27;98996.00;;;7.49;71.13
10700;BME280;5401;41.986;21.452;2023-02-28T03:28:02;99001.63;;;7.54;71.30
10700;BME280;5401;41.986;21.452;2023-02-28T03:30:39;98990.63;;;7.57;71.35
10700;BME280;5401;41.986;21.452;2023-02-28T03:33:11;98988.88;;;7.64;71.29
10700;BME280;5401;41.986;21.452;2023-02-28T03:35:45;98995.84;;;7.65;71.97
10700;BME280;5401;41.986;21.452;2023-02-28T03:38:19;98993.19;;;7.65;71.57
10700;BME280;5401;41.986;21.452;2023-02-28T03:40:53;99002.69;;;7.68;71.17
10700;BME280;5401;41.986;21.452;2023-02-28T03:43:26;98997.38;;;7.68;71.52
10700;BME280;5401;41.986;21.452;2023-02-28T03:45:56;98996.16;;;7.70;70.92
10700;BME280;5401;41.986;21.452;2023-02-28T03:48:30;99000.03;;;7.68;71.93
10700;BME280;5401;41.986;21.452;2023-02-28T03:51:00;98998.84;;;7.70;71.26
10700;BME280;5401;41.986;21.452;2023-02-28T03:53:32;99008.13;;;7.74;72.18
10700;BME280;5401;41.986;21.452;2023-02-28T03:56:06;99005.75;;;7.79;71.46
10700;BME280;5401;41.986;21.452;2023-02-28T03:58:41;98999.47;;;7.72;71.20
10700;BME280;5401;41.986;21.452;2023-02-28T04:01:14;99000.31;;;7.73;71.90
10700;BME280;5401;41.986;21.452;2023-02-28T04:03:42;99002.44;;;7.77;71.34
10700;BME280;5401;41.986;21.452;2023-02-28T04:06:15;99013.94;;;7.78;71.67
10700;BME280;5401;41.986;21.452;2023-02-28T04:08:45;99018.41;;;7.77;72.04
10700;BME280;5401;41.986;21.452;2023-02-28T04:11:20;99011.19;;;7.63;71.31
10700;BME280;5401;41.986;21.452;2023-02-28T04:13:50;99016.72;;;7.62;71.93
10700;BME280;5401;41.986;21.452;2023-02-28T04:16:18;99013.75;;;7.57;71.34
10700;BME280;5401;41.986;21.452;2023-02-28T04:18:46;99024.94;;;7.52;72.25
10700;BME280;5401;41.986;21.452;2023-02-28T04:21:13;99015.81;;;7.47;71.65
10700;BME280;5401;41.986;21.452;2023-02-28T04:23:41;99030.94;;;7.54;72.01
10700;BME280;5401;41.986;21.452;2023-02-28T04:26:10;99010.31;;;7.48;71.83
10700;BME280;5401;41.986;21.452;2023-02-28T04:28:38;99011.34;;;7.47;72.80
10700;BME280;5401;41.986;21.452;2023-02-28T04:31:05;99024.66;;;7.47;72.46
10700;BME280;5401;41.986;21.452;2023-02-28T04:33:33;99019.38;;;7.40;71.70
10700;BME280;5401;41.986;21.452;2023-02-28T04:36:01;99027.66;;;7.45;72.37
10700;BME280;5401;41.986;21.452;2023-02-28T04:38:31;98996.66;;;7.29;72.38
10700;BME280;5401;41.986;21.452;2023-02-28T04:40:59;99019.38;;;7.40;72.38
10700;BME280;5401;41.986;21.452;2023-02-28T04:43:29;99029.03;;;7.41;72.86
10700;BME280;5401;41.986;21.452;2023-02-28T04:45:58;99022.03;;;7.40;72.48
10700;BME280;5401;41.986;21.452;2023-02-28T04:48:27;99024.88;;;7.38;72.40
10700;BME280;5401;41.986;21.452;2023-02-28T04:50:55;99013.75;;;7.35;72.54
10700;BME280;5401;41.986;21.452;2023-02-28T04:53:27;99012.44;;;7.31;72.54
10700;BME280;5401;41.986;21.452;2023-02-28T04:55:55;99026.53;;;7.39;72.81
10700;BME280;5401;41.986;21.452;2023-02-28T04:58:23;99017.06;;;7.37;72.83
10700;BME280;5401;41.986;21.452;2023-02-28T05:00:52;99011.94;;;7.35;73.17
10700;BME280;5401;41.986;21.452;2023-02-28T05:03:20;99022.38;;;7.37;72.45
10700;BME280;5401;41.986;21.452;2023-02-28T05:05:48;99021.78;;;7.27;73.10
10700;BME280;5401;41.986;21.452;2023-02-28T05:08:16;99027.31;;;7.25;73.46
10700;BME280;5401;41.986;21.452;2023-02-28T05:10:43;99025.78;;;7.23;73.50
10700;BME280;5401;41.986;21.452;2023-02-28T05:13:12;99032.75;;;7.32;73.52
10700;BME280;5401;41.986;21.452;2023-02-28T05:15:39;99025.03;;;7.37;73.81
10700;BME280;5401;41.986;21.452;2023-02-28T05:18:09;99036.06;;;7.34;73.23
10700;BME280;5401;41.986;21.452;2023-02-28T05:20:37;99026.59;;;7.31;73.76
10700;BME280;5401;41.986;21.452;2023-02-28T05:23:08;99011.81;;;7.21;73.05
10700;BME280;5401;41.986;21.452;2023-02-28T05:25:39;99037.75;;;7.27;73.74
10700;BME280;5401;41.986;21.452;2023-02-28T05:28:07;99035.78;;;7.21;73.22
10700;BME280;5401;41.986;21.452;2023-02-28T05:30:35;99040.66;;;7.17;73.91
10700;BME280;5401;41.986;21.452;2023-02-28T05:33:02;99048.16;;;7.14;73.62
10700;BME280;5401;41.986;21.452;2023-02-28T05:35:31;99051.84;;;7.13;73.54
10700;BME280;5401;41.986;21.452;2023-02-28T05:37:59;99011.84;;;6.91;73.65
10700;BME280;5401;41.986;21.452;2023-02-28T05:40:27;99063.06;;;7.23;73.77
10700;BME280;5401;41.986;21.452;2023-02-28T05:42:54;99066.06;;;7.28;74.01
10700;BME280;5401;41.986;21.452;2023-02-28T05:45:22;99055.81;;;7.39;74.51
10700;BME280;5401;41.986;21.452;2023-02-28T05:47:53;99064.94;;;7.45;73.63
10700;BME280;5401;41.986;21.452;2023-02-28T05:50:26;99066.91;;;7.50;74.01
10700;BME280;5401;41.986;21.452;2023-02-28T05:52:55;99071.72;;;7.55;74.01
10700;BME280;5401;41.986;21.452;2023-02-28T05:55:23;99068.88;;;7.56;73.74
10700;BME280;5401;41.986;21.452;2023-02-28T05:57:50;99065.69;;;7.61;73.81
10700;BME280;5401;41.986;21.452;2023-02-28T06:00:21;99058.06;;;7.58;73.45
10700;BME280;5401;41.986;21.452;2023-02-28T06:02:48;99057.50;;;7.40;73.28
10700;BME280;5401;41.986;21.452;2023-02-28T06:05:17;99079.69;;;7.55;73.63
10700;BME280;5401;41.986;21.452;2023-02-28T06:07:45;99065.56;;;7.54;74.04
10700;BME280;5401;41.986;21.452;2023-02-28T06:10:14;99073.66;;;7.61;73.46
10700;BME280;5401;41.986;21.452;2023-02-28T06:12:42;99079.78;;;7.69;73.92
10700;BME280;5401;41.986;21.452;2023-02-28T06:15:12;99074.44;;;7.69;73.01
10700;BME280;5401;41.986;21.452;2023-02-28T06:17:40;99082.09;;;7.72;73.50
10700;BME280;5401;41.986;21.452;2023-02-28T06:20:09;99080.25;;;7.73;73.25
10700;BME280;5401;41.986;21.452;2023-02-28T06:22:39;99097.00;;;7.81;73.33
10700;BME280;5401;41.986;21.452;2023-02-28T06:25:07;99096.47;;;7.85;73.60
10700;BME280;5401;41.986;21.452;2023-02-28T06:27:36;99091.34;;;7.84;72.61
10700;BME280;5401;41.986;21.452;2023-02-28T06:30:04;99098.31;;;7.85;73.62
10700;BME280;5401;41.986;21.452;2023-02-28T06:32:32;99101.31;;;7.90;72.89
10700;BME280;5401;41.986;21.452;2023-02-28T06:35:00;99106.69;;;7.82;73.09
10700;BME280;5401;41.986;21.452;2023-02-28T06:37:27;99110.72;;;7.78;73.15
10700;BME280;5401;41.986;21.452;2023-02-28T06:39:55;99099.06;;;7.71;72.98
10700;BME280;5401;41.986;21.452;2023-02-28T06:42:23;99062.59;;;7.49;73.63
10700;BME280;5401;41.986;21.452;2023-02-28T06:44:56;99118.00;;;7.84;73.89
10700;BME280;5401;41.986;21.452;2023-02-28T06:47:23;99111.44;;;7.94;73.40
10700;BME280;5401;41.986;21.452;2023-02-28T06:49:51;99118.81;;;8.07;73.04
10700;BME280;5401;41.986;21.452;2023-02-28T06:52:19;99101.16;;;8.06;72.51
10700;BME280;5401;41.986;21.452;2023-02-28T06:54:48;99113.81;;;8.12;72.95
10700;BME280;5401;41.986;21.452;2023-02-28T06:57:25;99122.75;;;8.18;73.26
10700;BME280;5401;41.986;21.452;2023-02-28T06:59:58;99107.75;;;8.18;72.64
10700;BME280;5401;41.986;21.452;2023-02-28T07:02:26;99113.19;;;8.24;72.39
10700;BME280;5401;41.986;21.452;2023-02-28T07:04:54;99127.31;;;8.32;72.54
10700;BME280;5401;41.986;21.452;2023-02-28T07:07:22;99135.97;;;8.34;72.91
10700;BME280;5401;41.986;21.452;2023-02-28T07:09:49;99137.94;;;8.40;73.01
10700;BME280;5401;41.986;21.452;2023-02-28T07:12:19;99125.53;;;8.25;72.57
10700;BME280;5401;41.986;21.452;2023-02-28T07:14:47;99118.34;;;8.03;72.31
10700;BME280;5401;41.986;21.452;2023-02-28T07:17:16;99126.59;;;7.94;72.77
10700;BME280;5401;41.986;21.452;2023-02-28T07:19:44;99116.28;;;7.91;73.24
10700;BME280;5401;41.986;21.452;2023-02-28T07:22:22;99114.03;;;8.02;73.22
10700;BME280;5401;41.986;21.452;2023-02-28T07:24:51;99128.03;;;8.26;72.91
10700;BME280;5401;41.986;21.452;2023-02-28T07:27:48;99135.19;;;8.26;72.98
10700;BME280;5401;41.986;21.452;2023-02-28T07:30:22;99122.22;;;8.23;72.43
10700;BME280;5401;41.986;21.452;2023-02-28T07:32:51;99103.94;;;8.20;72.96
10700;BME280;5401;41.986;21.452;2023-02-28T07:35:20;99120.97;;;8.33;73.54
10700;BME280;5401;41.986;21.452;2023-02-28T07:37:50;99127.25;;;8.40;73.19
10700;BME280;5401;41.986;21.452;2023-02-28T07:40:18;99090.41;;;8.36;72.52
10700;BME280;5401;41.986;21.452;2023-02-28T07:42:45;99114.97;;;8.68;72.85
10700;BME280;5401;41.986;21.452;2023-02-28T07:45:13;99103.72;;;8.72;73.03
10700;BME280;5401;41.986;21.452;2023-02-28T07:47:42;99101.72;;;8.88;72.50
10700;BME280;5401;41.986;21.452;2023-02-28T07:50:14;99116.00;;;8.95;72.24
10700;BME280;5401;41.986;21.452;2023-02-28T07:52:42;99107.16;;;8.95;72.29
10700;BME280;5401;41.986;21.452;2023-02-28T07:55:10;99113.59;;;9.00;71.20
10700;BME280;5401;41.986;21.452;2023-02-28T07:57:40;99112.41;;;9.03;71.94
10700;BME280;5401;41.986;21.452;2023-02-28T08:00:09;99101.91;;;9.01;72.20
10700;BME280;5401;41.986;21.452;2023-02-28T08:02:38;99097.94;;;8.97;71.88
10700;BME280;5401;41.986;21.452;2023-02-28T08:05:07;99097.31;;;8.95;72.06
10700;BME280;5401;41.986;21.452;2023-02-28T08:07:37;99093.59;;;8.96;71.55
10700;BME280;5401;41.986;21.452;2023-02-28T08:10:18;99097.94;;;8.97;71.93
10700;BME280;5401;41.986;21.452;2023-02-28T08:12:49;99098.59;;;9.14;72.25
10700;BME280;5401;41.986;21.452;2023-02-28T08:15:17;99102.81;;;9.23;71.18
10700;BME280;5401;41.986;21.452;2023-02-28T08:18:10;99106.50;;;9.22;71.45
10700;BME280;5401;41.986;21.452;2023-02-28T08:20:50;99097.66;;;9.21;70.92
10700;BME280;5401;41.986;21.452;2023-02-28T08:23:37;99090.94;;;9.25;71.77
10700;BME280;5401;41.986;21.452;2023-02-28T08:26:26;99106.41;;;9.29;71.56
10700;BME280;5401;41.986;21.452;2023-02-28T08:29:04;99092.66;;;9.32;71.37
10700;BME280;5401;41.986;21.452;2023-02-28T08:31:32;99093.84;;;9.44;70.24
10700;BME280;5401;41.986;21.452;2023-02-28T08:34:05;99084.91;;;9.52;70.66
10700;BME280;5401;41.986;21.452;2023-02-28T08:36:40;99077.94;;;9.57;70.47
10700;BME280;5401;41.986;21.452;2023-02-28T08:39:12;99078.75;;;9.72;69.94
10700;BME280;5401;41.986;21.452;2023-02-28T08:41:46;99081.09;;;9.81;70.61
10700;BME280;5401;41.986;21.452;2023-02-28T08:44:14;99071.78;;;9.77;69.89
10700;BME280;5401;41.986;21.452;2023-02-28T08:46:41;99069.09;;;9.92;70.11
10700;BME280;5401;41.986;21.452;2023-02-28T08:49:10;99070.00;;;9.98;69.80
10700;BME280;5401;41.986;21.452;2023-02-28T08:51:38;99069.06;;;10.06;69.34
10700;BME280;5401;41.986;21.452;2023-02-28T08:54:06;99074.31;;;10.20;69.15
10700;BME280;5401;41.986;21.452;2023-02-28T08:56:35;99073.19;;;10.35;69.55
10700;BME280;5401;41.986;21.452;2023-02-28T08:59:02;99051.16;;;10.33;69.47
10700;BME280;5401;41.986;21.452;2023-02-28T09:01:30;99072.97;;;10.58;69.30
10700;BME280;5401;41.986;21.452;2023-02-28T09:03:58;99037.25;;;10.44;69.06
10700;BME280;5401;41.986;21.452;2023-02-28T09:06:27;99042.03;;;10.49;68.42
10700;BME280;5401;41.986;21.452;2023-02-28T09:08:56;99066.69;;;10.71;68.67
10700;BME280;5401;41.986;21.452;2023-02-28T09:11:27;99054.84;;;10.60;68.39
10700;BME280;5401;41.986;21.452;2023-02-28T09:13:57;99045.19;;;10.59;68.29
10700;BME280;5401;41.986;21.452;2023-02-28T09:16:25;99052.78;;;10.55;68.16
10700;BME280;5401;41.986;21.452;2023-02-28T09:18:52;99054.63;;;10.55;68.18
10700;BME280;5401;41.986;21.452;2023-02-28T09:21:20;99068.66;;;10.57;68.09
10700;BME280;5401;41.986;21.452;2023-02-28T09:23:50;99052.09;;;10.47;68.11
10700;BME280;5401;41.986;21.452;2023-02-28T09:26:21;99072.16;;;10.57;68.35
10700;BME280;5401;41.986;21.452;2023-02-28T09:28:54;99054.19;;;10.51;68.18
10700;BME280;5401;41.986;21.452;2023-02-28T09:31:26;99046.09;;;10.45;68.22
10700;BME280;5401;41.986;21.452;2023-02-28T09:33:57;99052.97;;;10.54;67.87
10700;BME280;5401;41.986;21.452;2023-02-28T09:36:26;99059.38;;;10.59;67.93
10700;BME280;5401;41.986;21.452;2023-02-28T09:38:55;99032.56;;;10.53;67.89
10700;BME280;5401;41.986;21.452;2023-02-28T09:41:25;99029.69;;;10.54;68.21
10700;BME280;5401;41.986;21.452;2023-02-28T09:43:59;99007.75;;;10.38;68.04
10700;BME280;5401;41.986;21.452;2023-02-28T09:46:33;99048.69;;;10.59;68.13
10700;BME280;5401;41.986;21.452;2023-02-28T09:49:04;99048.13;;;10.70;68.18
10700;BME280;5401;41.986;21.452;2023-02-28T09:51:40;99034.88;;;10.62;67.94
10700;BME280;5401;41.986;21.452;2023-02-28T09:54:14;99041.44;;;10.53;68.04
10700;BME280;5401;41.986;21.452;2023-02-28T09:56:47;99051.84;;;10.42;68.54
10700;BME280;5401;41.986;21.452;2023-02-28T09:59:28;99046.28;;;10.43;68.50
10700;BME280;5401;41.986;21.452;2023-02-28T10:02:04;99041.84;;;10.50;68.29
10700;BME280;5401;41.986;21.452;2023-02-28T10:04:42;99014.81;;;10.45;68.65
10700;BME280;5401;41.986;21.452;2023-02-28T10:07:35;99028.75;;;10.68;68.49
10700;BME280;5401;41.986;21.452;2023-02-28T10:12:44;99023.00;;;10.71;68.16
10700;BME280;5401;41.986;21.452;2023-02-28T10:15:14;99015.59;;;10.73;67.93
10700;BME280;5401;41.986;21.452;2023-02-28T10:17:47;99015.13;;;10.63;67.31
10700;BME280;5401;41.986;21.452;2023-02-28T10:20:20;99008.38;;;10.67;67.91
10700;BME280;5401;41.986;21.452;2023-02-28T10:22:58;99013.16;;;10.78;68.05
10700;BME280;5401;41.986;21.452;2023-02-28T10:25:34;99007.00;;;10.84;67.93
10700;BME280;5401;41.986;21.452;2023-02-28T10:28:09;99002.13;;;10.94;67.58
10700;BME280;5401;41.986;21.452;2023-02-28T10:30:40;99006.06;;;10.98;67.78
10700;BME280;5401;41.986;21.452;2023-02-28T10:33:18;99000.03;;;10.89;67.75
10700;BME280;5401;41.986;21.452;2023-02-28T10:35:46;99004.97;;;10.92;67.74
10700;BME280;5401;41.986;21.452;2023-02-28T10:38:17;98988.22;;;10.77;67.88
10700;BME280;5401;41.986;21.452;2023-02-28T10:40:45;99003.56;;;10.96;67.78
10700;BME280;5401;41.986;21.452;2023-02-28T10:43:21;98991.63;;;10.99;67.53
10700;BME280;5401;41.986;21.452;2023-02-28T10:45:55;99001.16;;;11.14;67.59
10700;BME280;5401;41.986;21.452;2023-02-28T10:48:32;98991.09;;;11.22;67.09
10700;BME280;5401;41.986;21.452;2023-02-28T10:51:00;98982.88;;;11.30;67.03
10700;BME280;5401;41.986;21.452;2023-02-28T10:53:35;98970.53;;;11.29;67.27
10700;BME280;5401;41.986;21.452;2023-02-28T10:56:12;98970.19;;;11.51;66.55
10700;BME280;5401;41.986;21.452;2023-02-28T10:58:50;98971.03;;;11.65;66.63
10700;BME280;5401;41.986;21.452;2023-02-28T11:01:19;98954.72;;;11.60;66.46
10700;BME280;5401;41.986;21.452;2023-02-28T11:03:53;98965.47;;;11.85;66.66
10700;BME280;5401;41.986;21.452;2023-02-28T11:06:26;98949.16;;;11.93;65.51
10700;BME280;5401;41.986;21.452;2023-02-28T11:08:55;98950.59;;;12.28;65.37
10700;BME280;5401;41.986;21.452;2023-02-28T11:11:26;98946.78;;;12.67;65.48
10700;BME280;5401;41.986;21.452;2023-02-28T11:13:57;98938.69;;;12.86;64.74
10700;BME280;5401;41.986;21.452;2023-02-28T11:16:34;98943.59;;;13.02;65.02
10700;BME280;5401;41.986;21.452;2023-02-28T11:19:06;98918.75;;;13.07;63.73
10700;BME280;5401;41.986;21.452;2023-02-28T11:21:50;98922.09;;;13.39;64.09
10700;BME280;5401;41.986;21.452;2023-02-28T11:24:23;98927.72;;;13.62;63.91
10700;BME280;5401;41.986;21.452;2023-02-28T11:26:52;98924.88;;;13.81;63.81
10700;BME280;5401;41.986;21.452;2023-02-28T11:29:22;98924.72;;;13.76;63.19
10700;BME280;5401;41.986;21.452;2023-02-28T11:32:12;98922.06;;;14.00;62.55
10700;BME280;5401;41.986;21.452;2023-02-28T11:34:43;98915.97;;;14.11;62.55
10700;BME280;5401;41.986;21.452;2023-02-28T11:37:13;98909.63;;;14.24;62.45
10700;BME280;5401;41.986;21.452;2023-02-28T11:39:42;98899.38;;;14.32;61.68
10700;BME280;5401;41.986;21.452;2023-02-28T11:45:21;98920.97;;;14.67;61.85
10700;BME280;5401;41.986;21.452;2023-02-28T11:47:58;98884.66;;;14.52;61.33
10700;BME280;5401;41.986;21.452;2023-02-28T11:50:42;98906.69;;;14.67;61.72
10700;BME280;5401;41.986;21.452;2023-02-28T11:53:19;98900.25;;;14.50;61.63
10700;BME280;5401;41.986;21.452;2023-02-28T11:55:52;98896.72;;;14.50;61.07
10700;BME280;5401;41.986;21.452;2023-02-28T11:58:32;98883.19;;;14.38;61.14
10700;BME280;5401;41.986;21.452;2023-02-28T12:03:59;98880.41;;;14.45;60.87
10700;BME280;5401;41.986;21.452;2023-02-28T12:06:36;98874.25;;;14.56;61.82
10700;BME280;5401;41.986;21.452;2023-02-28T12:12:23;98866.34;;;14.61;60.92
10700;BME280;5401;41.986;21.452;2023-02-28T12:15:11;98868.94;;;14.67;61.11
10700;BME280;5401;41.986;21.452;2023-02-28T12:17:53;98817.53;;;14.68;60.93
10700;BME280;5401;41.986;21.452;2023-02-28T12:20:32;98847.13;;;14.86;60.90
10700;BME280;5401;41.986;21.452;2023-02-28T12:23:17;98840.47;;;14.89;60.81
10700;BME280;5401;41.986;21.452;2023-02-28T12:25:55;98843.44;;;14.98;60.82
10700;BME280;5401;41.986;21.452;2023-02-28T12:28:31;98785.19;;;14.68;61.12
10700;BME280;5401;41.986;21.452;2023-02-28T12:31:04;98836.19;;;15.10;60.51
10700;BME280;5401;41.986;21.452;2023-02-28T12:33:36;98817.44;;;15.04;60.58
10700;BME280;5401;41.986;21.452;2023-02-28T12:36:10;98809.06;;;14.65;60.64
10700;BME280;5401;41.986;21.452;2023-02-28T12:38:45;98816.84;;;14.55;60.88
10700;BME280;5401;41.986;21.452;2023-02-28T12:41:17;98798.78;;;14.73;61.28
10700;BME280;5401;41.986;21.452;2023-02-28T12:43:51;98797.84;;;14.97;60.69
10700;BME280;5401;41.986;21.452;2023-02-28T12:46:25;98771.13;;;15.07;60.70
10700;BME280;5401;41.986;21.452;2023-02-28T12:48:56;98772.69;;;15.14;60.82
10700;BME280;5401;41.986;21.452;2023-02-28T12:51:26;98787.16;;;15.20;60.42
10700;BME280;5401;41.986;21.452;2023-02-28T12:54:06;98771.72;;;15.09;60.13
10700;BME280;5401;41.986;21.452;2023-02-28T12:56:46;98765.03;;;15.11;60.27
10700;BME280;5401;41.986;21.452;2023-02-28T12:59:23;98771.22;;;15.00;60.38
10700;BME280;5401;41.986;21.452;2023-02-28T13:05:07;98773.41;;;14.92;60.12
10700;BME280;5401;41.986;21.452;2023-02-28T13:10:43;98746.03;;;15.06;60.36
10700;BME280;5401;41.986;21.452;2023-02-28T13:13:19;98766.28;;;15.27;60.24
10700;BME280;5401;41.986;21.452;2023-02-28T13:16:04;98756.66;;;15.31;60.10
10700;BME280;5401;41.986;21.452;2023-02-28T13:18:35;98767.13;;;15.27;60.20
10700;BME280;5401;41.986;21.452;2023-02-28T13:21:07;98741.81;;;15.10;59.91
10700;BME280;5401;41.986;21.452;2023-02-28T13:29:59;98743.88;;;15.49;59.89
10700;BME280;5401;41.986;21.452;2023-02-28T13:32:33;98704.59;;;15.30;59.70
10700;BME280;5401;41.986;21.452;2023-02-28T13:38:17;98740.59;;;15.47;60.14
10700;BME280;5401;41.986;21.452;2023-02-28T13:40:49;98701.06;;;15.18;59.69
10700;BME280;5401;41.986;21.452;2023-02-28T13:43:17;98738.84;;;15.30;59.84
10700;BME280;5401;41.986;21.452;2023-02-28T13:46:12;98728.06;;;15.30;60.12
10700;BME280;5401;41.986;21.452;2023-02-28T13:48:40;98729.94;;;15.29;60.14
10700;BME280;5401;41.986;21.452;2023-02-28T13:51:39;98723.00;;;15.22;60.22
10700;BME280;5401;41.986;21.452;2023-02-28T13:54:19;98707.69;;;15.04;60.25
10700;BME280;5401;41.986;21.452;2023-02-28T13:59:30;98711.56;;;15.08;59.88
10700;BME280;5401;41.986;21.452;2023-02-28T14:02:23;98707.44;;;15.06;60.39
10700;BME280;5401;41.986;21.452;2023-02-28T14:05:02;98657.56;;;14.74;60.18
10700;BME280;5401;41.986;21.452;2023-02-28T14:07:38;98695.22;;;14.92;60.24
10700;BME280;5401;41.986;21.452;2023-02-28T14:10:22;98690.16;;;14.84;60.73